Time;durP1;ratioP1;P1;durP2;ratioP2;P2;SDS_P1;SDS_P2;PMS_P1;PMS_P2;Temp;Humidity;BMP_temperature;BMP_pressure;BME280_temperature;BME280_humidity;BME280_pressure;Samples;Min_cycle;Max_cycle;Signal;HPM_P1;HPM_P2
2021/04/05 00:00:05;;;;;;;;;;;;;;;;;;4974073;28;20393;-69
2021/04/05 00:02:31;;;;;;;;;;;;;;;;;;4975368;28;19980;-69
2021/04/05 00:04:57;;;;;;;;;;;;;;;;;;4975505;28;19926;-70
2021/04/05 00:07:23;;;;;;;;;;;;;;;;;;4974761;28;19935;-70
2021/04/05 00:09:49;;;;;;;;;;;;;;;;;;4974167;28;19934;-69
2021/04/05 00:12:15;;;;;;;;;;;;;;;;;;4974206;28;19930;-70
2021/04/05 00:14:41;;;;;;;;;;;;;;;;;;4975120;28;19968;-70
2021/04/05 00:17:07;;;;;;;;;;;;;;;;;;4973478;28;19926;-70
2021/04/05 00:19:33;;;;;;;;;;;;;;;;;;4975306;28;19969;-70
2021/04/05 00:21:59;;;;;;;;;;;;;;;;;;4974143;28;19930;-70
2021/04/05 00:24:25;;;;;;;;;;;;;;;;;;4975323;28;19954;-70
2021/04/05 00:26:51;;;;;;;;;;;;;;;;;;4973277;28;19969;-70
2021/04/05 00:29:17;;;;;;;;;;;;;;;;;;4975094;28;19970;-70
2021/04/05 00:31:43;;;;;;;;;;;;;;;;;;4974989;28;19937;-70
2021/04/05 00:34:09;;;;;;;;;;;;;;;;;;4975403;28;20425;-70
2021/04/05 00:36:35;;;;;;;;;;;;;;;;;;4974186;28;19980;-70
2021/04/05 00:39:01;;;;;;;;;;;;;;;;;;4973400;28;20381;-70
2021/04/05 00:41:26;;;;;;;;;;;;;;;;;;4973584;28;19984;-70
2021/04/05 00:43:52;;;;;;;;;;;;;;;;;;4973645;28;19930;-70
2021/04/05 00:46:20;;;;;;;;;;;;;;;;;;4972985;28;19965;-69
2021/04/05 00:48:46;;;;;;;;;;;;;;;;;;4974467;28;19980;-70
2021/04/05 00:51:13;;;;;;;;;;;;;;;;;;4973806;28;20021;-70
2021/04/05 00:53:40;;;;;;;;;;;;;;;;;;4957518;28;19929;-70
2021/04/05 00:56:06;;;;;;;;;;;;;;;;;;4972846;28;20386;-70
2021/04/05 00:58:33;;;;;;;;;;;;;;;;;;4972950;28;19996;-70
2021/04/05 01:01:00;;;;;;;;;;;;;;;;;;4973282;28;19949;-70
2021/04/05 01:03:27;;;;;;;;;;;;;;;;;;4973339;28;20090;-70
2021/04/05 01:05:57;;;;;;;;;;;;;;;;;;4972587;28;19930;-69
2021/04/05 01:08:23;;;;;;;;;;;;;;;;;;4972780;28;20389;-70
2021/04/05 01:10:49;;;;;;;;;;;;;;;;;;4974070;28;19973;-69
2021/04/05 01:13:15;;;;;;;;;;;;;;;;;;4973054;28;19926;-69
2021/04/05 01:15:41;;;;;;;;;;;;;;;;;;4973362;28;19934;-70
2021/04/05 01:18:07;;;;;;;;;;;;;;;;;;4974590;28;19985;-70
2021/04/05 01:20:33;;;;;;;;;;;;;;;;;;4972766;28;19934;-70
2021/04/05 01:23:00;;;;;;;;;;;;;;;;;;4972845;28;19926;-69
2021/04/05 01:25:26;;;;;;;;;;;;;;;;;;4973336;28;20347;-70
2021/04/05 01:27:52;;;;;;;;;;;;;;;;;;4974054;28;19933;-70
2021/04/05 01:30:30;;;;;;;;;;;;;;;;;;4973073;28;19986;-70
2021/04/05 01:33:00;;;;;;;;;;;;;;;;;;4972999;28;19973;-70
2021/04/05 01:35:26;;;;;;;;;;;;;;;;;;4973560;28;20397;-70
2021/04/05 01:37:52;;;;;;;;;;;;;;;;;;4973828;28;19926;-70
2021/04/05 01:40:17;;;;;;;;;;;;;;;;;;4973911;28;20430;-70
2021/04/05 01:42:43;;;;;;;;;;;;;;;;;;4973602;28;19926;-70
2021/04/05 01:45:10;;;;;;;;;;;;;;;;;;4973797;28;19934;-70
2021/04/05 01:47:35;;;;;;;;;;;;;;;;;;4972166;28;20610;-70
2021/04/05 01:50:02;;;;;;;;;;;;;;;;;;5011111;23;19965;-73
2021/04/05 01:52:28;;;;;;;;;;;;;;;;;;5014725;28;20380;-73
2021/04/05 01:54:54;;;;;;;;;;;;;;;;;;5014406;28;19925;-73
2021/04/05 01:57:20;;;;;;;;;;;;;;;;;;5014102;28;20273;-73
2021/04/05 01:59:46;;;;;;;;;;;;;;;;;;5021674;28;19979;-73
2021/04/05 02:02:12;;;;;;;;;;;;;;;;;;5032096;28;19932;-73
2021/04/05 02:04:37;;;;;;;;;;;;;;;;;;5032411;28;20027;-73
2021/04/05 02:07:04;;;;;;;;;;;;;;;;;;5031679;28;19925;-73
2021/04/05 02:09:30;;;;;;;;;;;;;;;;;;5000980;28;104295;-73
2021/04/05 02:11:55;;;;;;;;;;;;;;;;;;5021418;28;19980;-73
2021/04/05 02:14:21;;;;;;;;;;;;;;;;;;5032117;28;19925;-72
2021/04/05 02:16:47;;;;;;;;;;;;;;;;;;5019239;28;19925;-73
2021/04/05 02:19:16;;;;;;;;;;;;;;;;;;5017190;28;20390;-73
2021/04/05 02:21:45;;;;;;;;;;;;;;;;;;5010035;28;19972;-73
2021/04/05 02:24:12;;;;;;;;;;;;;;;;;;5011261;28;19926;-73
2021/04/05 02:26:38;;;;;;;;;;;;;;;;;;5011567;28;19979;-73
2021/04/05 02:29:04;;;;;;;;;;;;;;;;;;5012809;28;19952;-73
2021/04/05 02:31:31;;;;;;;;;;;;;;;;;;5013726;28;20304;-72
2021/04/05 02:34:03;;;;;;;;;;;;;;;;;;5013845;28;19972;-72
2021/04/05 02:36:30;;;;;;;;;;;;;;;;;;5014316;28;20003;-73
2021/04/05 02:39:00;;;;;;;;;;;;;;;;;;5012227;28;19939;-73
2021/04/05 02:41:27;;;;;;;;;;;;;;;;;;5011147;28;20033;-73
2021/04/05 02:43:53;;;;;;;;;;;;;;;;;;5011123;28;20207;-73
2021/04/05 02:46:21;;;;;;;;;;;;;;;;;;5011986;28;19975;-73
2021/04/05 02:48:47;;;;;;;;;;;;;;;;;;5011234;28;19945;-73
2021/04/05 02:51:13;;;;;;;;;;;;;;;;;;5010918;28;19933;-73
2021/04/05 02:53:46;;;;;;;;;;;;;;;;;;5012373;28;19987;-73
2021/04/05 02:56:12;;;;;;;;;;;;;;;;;;5010294;28;19977;-73
2021/04/05 02:58:39;;;;;;;;;;;;;;;;;;5012356;28;19984;-72
2021/04/05 03:01:06;;;;;;;;;;;;;;;;;;5012223;28;20342;-73
2021/04/05 03:03:32;;;;;;;;;;;;;;;;;;5012457;28;19976;-73
2021/04/05 03:05:58;;;;;;;;;;;;;;;;;;5017105;28;19929;-73
2021/04/05 03:08:25;;;;;;;;;;;;;;;;;;5032313;28;19926;-73
2021/04/05 03:10:51;;;;;;;;;;;;;;;;;;5031218;28;19972;-73
2021/04/05 03:13:17;;;;;;;;;;;;;;;;;;5031426;28;19925;-73
2021/04/05 03:15:43;;;;;;;;;;;;;;;;;;5031217;28;19979;-74
2021/04/05 03:18:09;;;;;;;;;;;;;;;;;;5031751;28;20470;-73
2021/04/05 03:20:35;;;;;;;;;;;;;;;;;;5030673;28;20027;-73
2021/04/05 03:23:01;;;;;;;;;;;;;;;;;;5031157;28;19925;-73
2021/04/05 03:25:27;;;;;;;;;;;;;;;;;;5013831;28;19978;-73
2021/04/05 03:27:53;;;;;;;;;;;;;;;;;;5032057;28;19929;-73
2021/04/05 03:30:22;;;;;;;;;;;;;;;;;;5034074;28;19933;-73
2021/04/05 03:32:50;;;;;;;;;;;;;;;;;;5019259;28;19930;-73
2021/04/05 03:35:17;;;;;;;;;;;;;;;;;;5014411;28;19976;-73
2021/04/05 03:37:43;;;;;;;;;;;;;;;;;;5029953;28;19978;-73
2021/04/05 03:40:10;;;;;;;;;;;;;;;;;;5035895;28;19975;-72
2021/04/05 03:43:05;;;;;;;;;;;;;;;;;;5046319;28;19956;-73
2021/04/05 03:45:35;;;;;;;;;;;;;;;;;;5038124;28;19952;-73
2021/04/05 03:48:20;;;;;;;;;;;;;;;;;;5035809;28;19971;-73
2021/04/05 03:50:47;;;;;;;;;;;;;;;;;;4997742;28;19930;-73
2021/04/05 03:53:19;;;;;;;;;;;;;;;;;;4979899;28;19929;-73
2021/04/05 03:55:46;;;;;;;;;;;;;;;;;;4995281;28;19926;-73
2021/04/05 03:58:12;;;;;;;;;;;;;;;;;;4995389;28;20369;-72
2021/04/05 04:00:39;;;;;;;;;;;;;;;;;;4995819;28;19929;-73
2021/04/05 04:03:06;;;;;;;;;;;;;;;;;;4995684;28;19973;-73
2021/04/05 04:08:18;;;;;;;;;;;;;;;;;;4996387;28;20453;-73
2021/04/05 04:10:45;;;;;;;;;;;;;;;;;;4996435;28;19925;-72
2021/04/05 04:13:11;;;;;;;;;;;;;;;;;;4995440;28;19972;-72
2021/04/05 04:15:37;;;;;;;;;;;;;;;;;;5009218;28;19925;-73
2021/04/05 04:18:03;;;;;;;;;;;;;;;;;;5034567;28;19968;-72
2021/04/05 04:20:29;;;;;;;;;;;;;;;;;;5018022;28;20331;-72
2021/04/05 04:22:56;;;;;;;;;;;;;;;;;;5036291;28;19979;-73
2021/04/05 04:25:22;;;;;;;;;;;;;;;;;;5033859;28;19925;-72
2021/04/05 04:27:48;;;;;;;;;;;;;;;;;;5033945;28;19925;-73
2021/04/05 04:30:31;;;;;;;;;;;;;;;;;;5035558;28;19975;-72
2021/04/05 04:33:07;;;;;;;;;;;;;;;;;;5034195;28;19964;-72
2021/04/05 04:35:34;;;;;;;;;;;;;;;;;;5033753;28;19929;-73
2021/04/05 04:38:00;;;;;;;;;;;;;;;;;;5017218;28;19926;-73
2021/04/05 04:40:27;;;;;;;;;;;;;;;;;;5035028;28;19925;-73
2021/04/05 04:42:57;;;;;;;;;;;;;;;;;;5035117;28;19979;-73
2021/04/05 04:45:23;;;;;;;;;;;;;;;;;;5033603;28;19976;-73
2021/04/05 04:47:50;;;;;;;;;;;;;;;;;;5034289;28;19925;-73
2021/04/05 04:50:16;;;;;;;;;;;;;;;;;;5033900;28;19925;-73
2021/04/05 04:52:42;;;;;;;;;;;;;;;;;;5034827;28;19971;-72
2021/04/05 04:55:09;;;;;;;;;;;;;;;;;;5034685;28;19931;-72
2021/04/05 04:57:35;;;;;;;;;;;;;;;;;;5032981;28;19975;-73
2021/04/05 05:00:02;;;;;;;;;;;;;;;;;;5033094;28;20383;-73
2021/04/05 05:02:28;;;;;;;;;;;;;;;;;;5033882;28;20295;-73
2021/04/05 05:04:54;;;;;;;;;;;;;;;;;;5035469;28;19951;-73
2021/04/05 05:07:20;;;;;;;;;;;;;;;;;;5034235;28;19925;-73
2021/04/05 05:09:46;;;;;;;;;;;;;;;;;;5034427;28;19925;-73
2021/04/05 05:12:12;;;;;;;;;;;;;;;;;;5032401;28;20372;-73
2021/04/05 05:14:38;;;;;;;;;;;;;;;;;;5033652;28;19971;-73
2021/04/05 05:17:06;;;;;;;;;;;;;;;;;;5032372;28;20414;-73
2021/04/05 05:19:34;;;;;;;;;;;;;;;;;;5033667;28;19925;-73
2021/04/05 05:22:00;;;;;;;;;;;;;;;;;;5033453;28;20161;-73
2021/04/05 05:24:28;;;;;;;;;;;;;;;;;;5016476;28;20016;-73
2021/04/05 05:26:54;;;;;;;;;;;;;;;;;;5032977;28;20368;-73
2021/04/05 05:29:21;;;;;;;;;;;;;;;;;;5033254;28;20024;-73
2021/04/05 05:31:47;;;;;;;;;;;;;;;;;;5041203;28;19932;-73
2021/04/05 05:34:14;;;;;;;;;;;;;;;;;;5035628;28;19925;-73
2021/04/05 05:36:40;;;;;;;;;;;;;;;;;;5033190;28;19929;-73
2021/04/05 05:39:06;;;;;;;;;;;;;;;;;;5014137;28;20347;-73
2021/04/05 05:41:54;;;;;;;;;;;;;;;;;;5012887;28;19983;-73
2021/04/05 05:44:44;;;;;;;;;;;;;;;;;;5012856;28;20009;-73
2021/04/05 05:47:11;;;;;;;;;;;;;;;;;;5008194;28;19926;-73
2021/04/05 05:49:50;;;;;;;;;;;;;;;;;;5012613;28;19926;-73
2021/04/05 05:52:25;;;;;;;;;;;;;;;;;;5012670;28;19979;-72
2021/04/05 05:55:15;;;;;;;;;;;;;;;;;;5013579;28;19932;-72
2021/04/05 05:57:41;;;;;;;;;;;;;;;;;;5007713;28;19926;-73
2021/04/05 06:00:08;;;;;;;;;;;;;;;;;;5012932;28;19979;-73
2021/04/05 06:02:52;;;;;;;;;;;;;;;;;;5014047;28;19926;-73
2021/04/05 06:05:33;;;;;;;;;;;;;;;;;;5015308;28;19972;-73
2021/04/05 06:08:02;;;;;;;;;;;;;;;;;;5032561;28;19991;-73
2021/04/05 06:10:47;;;;;;;;;;;;;;;;;;5034045;28;19925;-73
2021/04/05 06:13:31;;;;;;;;;;;;;;;;;;5033950;28;19932;-73
2021/04/05 06:16:13;;;;;;;;;;;;;;;;;;5033847;28;19925;-73
2021/04/05 06:18:49;;;;;;;;;;;;;;;;;;5020812;28;19933;-73
2021/04/05 06:21:34;;;;;;;;;;;;;;;;;;5012721;28;19979;-73
2021/04/05 06:24:00;;;;;;;;;;;;;;;;;;5014080;28;19926;-73
2021/04/05 06:26:43;;;;;;;;;;;;;;;;;;4997150;28;20399;-73
2021/04/05 06:29:08;;;;;;;;;;;;;;;;;;5014632;28;20190;-73
2021/04/05 06:31:37;;;;;;;;;;;;;;;;;;5033822;28;20029;-73
2021/04/05 06:34:24;;;;;;;;;;;;;;;;;;5033062;28;19971;-70
2021/04/05 06:37:08;;;;;;;;;;;;;;;;;;5031399;28;19925;-71
2021/04/05 06:39:42;;;;;;;;;;;;;;;;;;5019808;28;19980;-71
2021/04/05 06:42:23;;;;;;;;;;;;;;;;;;5012099;28;19952;-71
2021/04/05 06:44:52;;;;;;;;;;;;;;;;;;5004101;28;19964;-71
2021/04/05 06:47:36;;;;;;;;;;;;;;;;;;5011736;28;19925;-71
2021/04/05 06:50:03;;;;;;;;;;;;;;;;;;5010943;28;20351;-71
2021/04/05 06:52:29;;;;;;;;;;;;;;;;;;5012044;28;19929;-71
2021/04/05 06:55:04;;;;;;;;;;;;;;;;;;5012499;28;19932;-71
2021/04/05 06:57:49;;;;;;;;;;;;;;;;;;5024751;28;20339;-71
2021/04/05 07:00:15;;;;;;;;;;;;;;;;;;5032117;28;19925;-71
2021/04/05 07:02:53;;;;;;;;;;;;;;;;;;5017953;28;19925;-71
2021/04/05 07:05:34;;;;;;;;;;;;;;;;;;5015151;28;19956;-72
2021/04/05 07:08:21;;;;;;;;;;;;;;;;;;5015645;28;19926;-71
2021/04/05 07:11:04;;;;;;;;;;;;;;;;;;5015731;28;19979;-69
2021/04/05 07:13:31;;;;;;;;;;;;;;;;;;5002394;28;20035;-70
2021/04/05 07:16:00;;;;;;;;;;;;;;;;;;5002880;28;19925;-72
2021/04/05 07:18:33;;;;;;;;;;;;;;;;;;5003409;28;19929;-72
2021/04/05 07:21:18;;;;;;;;;;;;;;;;;;5000405;28;19973;-71
2021/04/05 07:23:50;;;;;;;;;;;;;;;;;;5004323;28;19930;-72
2021/04/05 07:26:18;;;;;;;;;;;;;;;;;;5004041;28;19972;-72
2021/04/05 07:29:00;;;;;;;;;;;;;;;;;;5007718;28;19983;-72
2021/04/05 07:31:38;;;;;;;;;;;;;;;;;;5008620;28;19930;-72
2021/04/05 07:34:19;;;;;;;;;;;;;;;;;;5001356;28;19930;-72
2021/04/05 07:36:50;;;;;;;;;;;;;;;;;;5004384;28;19952;-72
2021/04/05 07:39:24;;;;;;;;;;;;;;;;;;5000792;28;19925;-72
2021/04/05 07:41:56;;;;;;;;;;;;;;;;;;5005060;28;19976;-72
2021/04/05 07:44:29;;;;;;;;;;;;;;;;;;5007510;28;19965;-72
2021/04/05 07:47:14;;;;;;;;;;;;;;;;;;5003447;28;19973;-72
2021/04/05 07:50:00;;;;;;;;;;;;;;;;;;5023209;28;19976;-72
2021/04/05 07:52:32;;;;;;;;;;;;;;;;;;5033223;28;20277;-72
2021/04/05 07:54:58;;;;;;;;;;;;;;;;;;5028134;28;19965;-72
2021/04/05 07:57:47;;;;;;;;;;;;;;;;;;5012830;28;19930;-72
2021/04/05 08:00:27;;;;;;;;;;;;;;;;;;5012736;28;19933;-72
2021/04/05 08:03:12;;;;;;;;;;;;;;;;;;5014468;28;19977;-72
2021/04/05 08:05:38;;;;;;;;;;;;;;;;;;5021639;28;20465;-72
2021/04/05 08:08:06;;;;;;;;;;;;;;;;;;5019225;28;19925;-72
2021/04/05 08:11:00;;;;;;;;;;;;;;;;;;5013070;28;20111;-72
2021/04/05 08:13:35;;;;;;;;;;;;;;;;;;5004193;28;19925;-72
2021/04/05 08:16:04;;;;;;;;;;;;;;;;;;5013055;28;20411;-72
2021/04/05 08:18:42;;;;;;;;;;;;;;;;;;5013663;28;19973;-72
2021/04/05 08:21:12;;;;;;;;;;;;;;;;;;5013222;28;20145;-75
2021/04/05 08:23:38;;;;;;;;;;;;;;;;;;5000314;28;19933;-74
2021/04/05 08:26:21;;;;;;;;;;;;;;;;;;5010446;28;19932;-69
2021/04/05 08:29:06;;;;;;;;;;;;;;;;;;4997818;28;20368;-71
2021/04/05 08:31:37;;;;;;;;;;;;;;;;;;5001355;28;20042;-71
2021/04/05 08:34:12;;;;;;;;;;;;;;;;;;5004908;28;19925;-71
2021/04/05 08:36:50;;;;;;;;;;;;;;;;;;5003096;28;19987;-71
2021/04/05 08:39:35;;;;;;;;;;;;;;;;;;5066290;23;19937;-72
2021/04/05 08:42:01;;;;;;;;;;;;;;;;;;5007308;28;19929;-72
2021/04/05 08:44:43;;;;;;;;;;;;;;;;;;5002722;28;20441;-73
2021/04/05 08:47:12;;;;;;;;;;;;;;;;;;5001535;28;19933;-72
2021/04/05 08:49:40;;;;;;;;;;;;;;;;;;4985803;28;20903;-74
2021/04/05 08:52:10;;;;;;;;;;;;;;;;;;4998849;28;19964;-73
2021/04/05 08:54:37;;;;;;;;;;;;;;;;;;4999477;28;19933;-72
2021/04/05 08:57:04;;;;;;;;;;;;;;;;;;5000525;28;19926;-72
2021/04/05 08:59:36;;;;;;;;;;;;;;;;;;5002107;28;19980;-71
2021/04/05 09:02:04;;;;;;;;;;;;;;;;;;4999788;28;19926;-71
2021/04/05 09:04:30;;;;;;;;;;;;;;;;;;5000902;28;19925;-70
2021/04/05 09:07:02;;;;;;;;;;;;;;;;;;4997551;28;20304;-72
2021/04/05 09:09:27;;;;;;;;;;;;;;;;;;4999889;28;19972;-72
2021/04/05 09:11:53;;;;;;;;;;;;;;;;;;5000357;28;19926;-72
2021/04/05 09:14:19;;;;;;;;;;;;;;;;;;5002801;28;20324;-71
2021/04/05 09:17:04;;;;;;;;;;;;;;;;;;4981599;28;19973;-72
2021/04/05 09:19:36;;;;;;;;;;;;;;;;;;4990832;28;19931;-77
2021/04/05 09:25:53;;;;;;;;;;;;;;;;;;5000004;28;19948;-77
2021/04/05 09:31:14;;;;;;;;;;;;;;;;;;4999580;28;19980;-75
2021/04/05 09:34:00;;;;;;;;;;;;;;;;;;4982371;28;19930;-75
2021/04/05 09:36:45;;;;;;;;;;;;;;;;;;4999901;28;19926;-76
2021/04/05 09:39:33;;;;;;;;;;;;;;;;;;4999188;28;19953;-77
2021/04/05 09:41:59;;;;;;;;;;;;;;;;;;4999220;28;20004;-76
2021/04/05 09:44:25;;;;;;;;;;;;;;;;;;4997177;28;19930;-76
2021/04/05 09:47:12;;;;;;;;;;;;;;;;;;5002460;28;19977;-74
2021/04/05 09:49:57;;;;;;;;;;;;;;;;;;4996338;28;20017;-74
2021/04/05 09:52:41;;;;;;;;;;;;;;;;;;5000212;28;19948;-74
2021/04/05 09:55:13;;;;;;;;;;;;;;;;;;4998990;28;20206;-75
2021/04/05 09:58:02;;;;;;;;;;;;;;;;;;4981476;28;19932;-74
2021/04/05 10:00:28;;;;;;;;;;;;;;;;;;4997322;28;19933;-73
2021/04/05 10:03:04;;;;;;;;;;;;;;;;;;4996724;28;19996;-75
2021/04/05 10:05:32;;;;;;;;;;;;;;;;;;5000360;28;19976;-74
2021/04/05 10:08:42;;;;;;;;;;;;;;;;;;5002394;28;19929;-78
2021/04/05 10:11:08;;;;;;;;;;;;;;;;;;4997942;28;19925;-75
2021/04/05 10:13:34;;;;;;;;;;;;;;;;;;5002771;28;20020;-71
2021/04/05 10:16:21;;;;;;;;;;;;;;;;;;5004155;28;20459;-74
2021/04/05 10:18:48;;;;;;;;;;;;;;;;;;4999846;28;19956;-71
2021/04/05 10:21:14;;;;;;;;;;;;;;;;;;5002437;28;19929;-71
2021/04/05 10:23:40;;;;;;;;;;;;;;;;;;4999178;28;20344;-70
2021/04/05 10:26:06;;;;;;;;;;;;;;;;;;4996559;28;19925;-71
2021/04/05 10:28:35;;;;;;;;;;;;;;;;;;5001399;28;19925;-71
2021/04/05 10:31:09;;;;;;;;;;;;;;;;;;4996458;28;19933;-70
2021/04/05 10:33:40;;;;;;;;;;;;;;;;;;4998628;28;19965;-70
2021/04/05 10:36:06;;;;;;;;;;;;;;;;;;4998128;28;19926;-72
2021/04/05 10:38:34;;;;;;;;;;;;;;;;;;4999866;28;20348;-70
2021/04/05 10:41:00;;;;;;;;;;;;;;;;;;5001939;28;19977;-69
2021/04/05 10:43:36;;;;;;;;;;;;;;;;;;4999268;28;20371;-69
2021/04/05 10:46:06;;;;;;;;;;;;;;;;;;5001928;28;20442;-69
2021/04/05 10:48:37;;;;;;;;;;;;;;;;;;5000583;28;20023;-70
2021/04/05 10:51:11;;;;;;;;;;;;;;;;;;4999764;28;19948;-70
2021/04/05 10:53:39;;;;;;;;;;;;;;;;;;5001570;28;19926;-70
2021/04/05 10:56:06;;;;;;;;;;;;;;;;;;4999045;28;19930;-70
2021/04/05 10:58:35;;;;;;;;;;;;;;;;;;5000717;28;19965;-70
2021/04/05 11:01:01;;;;;;;;;;;;;;;;;;5000222;28;19929;-70
2021/04/05 11:03:27;;;;;;;;;;;;;;;;;;4999207;28;20396;-70
2021/04/05 11:05:55;;;;;;;;;;;;;;;;;;4997370;28;19980;-70
2021/04/05 11:08:22;;;;;;;;;;;;;;;;;;4998784;28;19925;-70
2021/04/05 11:10:48;;;;;;;;;;;;;;;;;;5000992;28;19940;-70
2021/04/05 11:13:16;;;;;;;;;;;;;;;;;;4998807;28;20355;-70
2021/04/05 11:15:44;;;;;;;;;;;;;;;;;;5000455;28;20327;-70
2021/04/05 11:18:11;;;;;;;;;;;;;;;;;;5000984;28;19969;-69
2021/04/05 11:20:39;;;;;;;;;;;;;;;;;;5000935;28;20373;-70
2021/04/05 11:23:07;;;;;;;;;;;;;;;;;;5001645;28;19933;-69
2021/04/05 11:25:34;;;;;;;;;;;;;;;;;;5003519;28;20377;-69
2021/04/05 11:28:26;;;;;;;;;;;;;;;;;;4997961;28;19926;-70
2021/04/05 11:30:57;;;;;;;;;;;;;;;;;;4993488;28;19981;-70
2021/04/05 11:33:23;;;;;;;;;;;;;;;;;;5001677;28;20368;-70
2021/04/05 11:35:50;;;;;;;;;;;;;;;;;;4999571;28;19980;-70
2021/04/05 11:38:16;;;;;;;;;;;;;;;;;;4982301;28;19988;-70
2021/04/05 11:40:43;;;;;;;;;;;;;;;;;;4998039;28;19973;-70
2021/04/05 11:43:19;;;;;;;;;;;;;;;;;;4997155;28;20396;-70
2021/04/05 11:45:46;;;;;;;;;;;;;;;;;;4998180;28;19988;-70
2021/04/05 11:48:22;;;;;;;;;;;;;;;;;;4996814;28;20412;-70
2021/04/05 11:50:48;;;;;;;;;;;;;;;;;;4998029;28;20445;-71
2021/04/05 11:53:22;;;;;;;;;;;;;;;;;;4997261;28;19930;-70
2021/04/05 11:55:50;;;;;;;;;;;;;;;;;;5002891;28;20021;-70
2021/04/05 11:58:19;;;;;;;;;;;;;;;;;;4998084;28;19926;-71
2021/04/05 12:00:47;;;;;;;;;;;;;;;;;;4995897;28;19930;-71
2021/04/05 12:03:19;;;;;;;;;;;;;;;;;;5001405;28;20388;-71
2021/04/05 12:05:46;;;;;;;;;;;;;;;;;;5003089;28;19929;-70
2021/04/05 12:08:22;;;;;;;;;;;;;;;;;;5002677;28;20355;-72
2021/04/05 12:10:48;;;;;;;;;;;;;;;;;;5001361;28;19934;-70
2021/04/05 12:13:19;;;;;;;;;;;;;;;;;;4996869;28;19988;-70
2021/04/05 12:15:46;;;;;;;;;;;;;;;;;;4996544;28;19977;-70
2021/04/05 12:18:12;;;;;;;;;;;;;;;;;;4998988;28;20023;-70
2021/04/05 12:20:38;;;;;;;;;;;;;;;;;;4999749;28;19965;-70
2021/04/05 12:23:08;;;;;;;;;;;;;;;;;;4999554;28;20521;-70
2021/04/05 12:25:35;;;;;;;;;;;;;;;;;;4996713;28;20396;-70
2021/04/05 12:28:03;;;;;;;;;;;;;;;;;;4997675;28;19961;-71
2021/04/05 12:30:30;;;;;;;;;;;;;;;;;;5000730;28;19941;-71
2021/04/05 12:32:56;;;;;;;;;;;;;;;;;;5000106;28;20470;-70
2021/04/05 12:35:23;;;;;;;;;;;;;;;;;;4995966;28;19929;-72
2021/04/05 12:37:55;;;;;;;;;;;;;;;;;;4997768;28;19977;-72
2021/04/05 12:40:23;;;;;;;;;;;;;;;;;;4999276;28;19929;-74
2021/04/05 12:42:49;;;;;;;;;;;;;;;;;;5003877;28;19930;-74
2021/04/05 12:45:15;;;;;;;;;;;;;;;;;;4995008;28;19929;-73
2021/04/05 12:47:41;;;;;;;;;;;;;;;;;;4992627;28;19936;-71
2021/04/05 12:50:10;;;;;;;;;;;;;;;;;;5003227;28;20368;-71
2021/04/05 12:52:37;;;;;;;;;;;;;;;;;;5002981;28;20021;-71
2021/04/05 12:55:11;;;;;;;;;;;;;;;;;;4999562;28;19930;-71
2021/04/05 12:57:37;;;;;;;;;;;;;;;;;;4996143;28;20337;-71
2021/04/05 13:00:07;;;;;;;;;;;;;;;;;;5000808;28;19941;-71
2021/04/05 13:02:33;;;;;;;;;;;;;;;;;;5002482;28;20003;-71
2021/04/05 13:05:02;;;;;;;;;;;;;;;;;;5005089;28;19929;-72
2021/04/05 13:07:49;;;;;;;;;;;;;;;;;;4999175;28;19988;-71
2021/04/05 13:10:17;;;;;;;;;;;;;;;;;;4998890;28;20023;-71
2021/04/05 13:12:47;;;;;;;;;;;;;;;;;;4998666;28;19999;-71
2021/04/05 13:15:32;;;;;;;;;;;;;;;;;;4996322;28;19984;-71
2021/04/05 13:18:07;;;;;;;;;;;;;;;;;;5002415;28;19968;-71
2021/04/05 13:20:34;;;;;;;;;;;;;;;;;;4999361;28;19965;-71
2021/04/05 13:23:01;;;;;;;;;;;;;;;;;;4994926;28;19926;-71
2021/04/05 13:25:28;;;;;;;;;;;;;;;;;;4998861;28;20447;-71
2021/04/05 13:27:54;;;;;;;;;;;;;;;;;;4999316;28;19930;-70
2021/04/05 13:30:20;;;;;;;;;;;;;;;;;;4994055;28;19926;-71
2021/04/05 13:32:49;;;;;;;;;;;;;;;;;;4998815;28;19929;-70
2021/04/05 13:35:19;;;;;;;;;;;;;;;;;;5000872;28;20454;-71
2021/04/05 13:37:46;;;;;;;;;;;;;;;;;;4997323;28;19958;-70
2021/04/05 13:40:13;;;;;;;;;;;;;;;;;;4996212;28;19926;-70
2021/04/05 13:42:39;;;;;;;;;;;;;;;;;;4997929;28;19960;-70
2021/04/05 13:45:07;;;;;;;;;;;;;;;;;;5003032;28;19961;-70
2021/04/05 13:47:33;;;;;;;;;;;;;;;;;;4999502;28;19957;-70
2021/04/05 13:50:00;;;;;;;;;;;;;;;;;;4995742;28;20296;-70
2021/04/05 13:52:27;;;;;;;;;;;;;;;;;;5003828;28;19976;-71
2021/04/05 13:55:03;;;;;;;;;;;;;;;;;;4995616;28;19979;-70
2021/04/05 13:57:35;;;;;;;;;;;;;;;;;;4998206;28;19945;-71
2021/04/05 14:00:08;;;;;;;;;;;;;;;;;;4997527;28;19929;-70
2021/04/05 14:02:35;;;;;;;;;;;;;;;;;;4996127;28;19956;-70
2021/04/05 14:05:01;;;;;;;;;;;;;;;;;;4998495;28;20286;-70
2021/04/05 14:07:34;;;;;;;;;;;;;;;;;;4997287;28;19926;-71
2021/04/05 14:10:01;;;;;;;;;;;;;;;;;;5001424;28;19926;-70
2021/04/05 14:12:28;;;;;;;;;;;;;;;;;;4993684;28;19925;-70
2021/04/05 14:14:55;;;;;;;;;;;;;;;;;;4997545;28;20384;-70
2021/04/05 14:17:31;;;;;;;;;;;;;;;;;;4996846;28;20376;-71
2021/04/05 14:20:04;;;;;;;;;;;;;;;;;;5003744;28;19976;-71
2021/04/05 14:22:32;;;;;;;;;;;;;;;;;;4999124;28;19980;-70
2021/04/05 14:24:59;;;;;;;;;;;;;;;;;;4996967;28;19972;-70
2021/04/05 14:27:45;;;;;;;;;;;;;;;;;;4993508;28;19979;-70
2021/04/05 14:30:11;;;;;;;;;;;;;;;;;;4999134;28;20356;-70
2021/04/05 14:32:50;;;;;;;;;;;;;;;;;;4993500;28;19930;-71
2021/04/05 14:35:16;;;;;;;;;;;;;;;;;;4999076;28;19926;-70
2021/04/05 14:37:44;;;;;;;;;;;;;;;;;;4979011;28;19977;-70
2021/04/05 14:40:12;;;;;;;;;;;;;;;;;;4996901;28;19938;-70
2021/04/05 14:42:42;;;;;;;;;;;;;;;;;;5001149;28;19976;-71
2021/04/05 14:45:08;;;;;;;;;;;;;;;;;;4969986;28;19965;-72
2021/04/05 14:47:35;;;;;;;;;;;;;;;;;;4998398;28;20352;-75
2021/04/05 14:50:01;;;;;;;;;;;;;;;;;;4997073;28;19933;-73
2021/04/05 14:52:28;;;;;;;;;;;;;;;;;;5000315;28;19930;-71
2021/04/05 14:54:54;;;;;;;;;;;;;;;;;;4994152;28;20603;-73
2021/04/05 14:57:20;;;;;;;;;;;;;;;;;;4997863;28;19936;-73
2021/04/05 14:59:47;;;;;;;;;;;;;;;;;;4995786;28;19972;-73
2021/04/05 15:02:14;;;;;;;;;;;;;;;;;;4991797;28;19926;-69
2021/04/05 15:04:42;;;;;;;;;;;;;;;;;;4997156;28;19977;-73
2021/04/05 15:07:09;;;;;;;;;;;;;;;;;;4995763;28;19934;-74
2021/04/05 15:09:39;;;;;;;;;;;;;;;;;;4995164;28;19930;-72
2021/04/05 15:12:06;;;;;;;;;;;;;;;;;;4999617;28;19969;-70
2021/04/05 15:14:39;;;;;;;;;;;;;;;;;;4997558;28;20384;-73
2021/04/05 15:17:07;;;;;;;;;;;;;;;;;;4995497;28;19926;-73
2021/04/05 15:19:34;;;;;;;;;;;;;;;;;;4999717;28;19929;-74
2021/04/05 15:22:05;;;;;;;;;;;;;;;;;;4995791;28;19933;-73
2021/04/05 15:24:32;;;;;;;;;;;;;;;;;;5004845;28;19957;-73
2021/04/05 15:27:02;;;;;;;;;;;;;;;;;;4983760;28;19981;-73
2021/04/05 15:29:29;;;;;;;;;;;;;;;;;;5000570;28;20448;-73
2021/04/05 15:31:55;;;;;;;;;;;;;;;;;;4999469;28;20000;-74
2021/04/05 15:34:25;;;;;;;;;;;;;;;;;;5002600;28;19925;-76
2021/04/05 15:36:52;;;;;;;;;;;;;;;;;;5001593;28;19929;-70
2021/04/05 15:39:18;;;;;;;;;;;;;;;;;;4999352;28;19984;-72
2021/04/05 15:41:45;;;;;;;;;;;;;;;;;;5003592;28;19930;-75
2021/04/05 15:44:20;;;;;;;;;;;;;;;;;;5001637;28;20467;-74
2021/04/05 15:46:46;;;;;;;;;;;;;;;;;;5003395;28;19932;-74
2021/04/05 15:49:13;;;;;;;;;;;;;;;;;;4999521;28;20024;-71
2021/04/05 15:51:48;;;;;;;;;;;;;;;;;;4999812;28;19937;-70
2021/04/05 15:54:33;;;;;;;;;;;;;;;;;;5003546;28;19968;-74
2021/04/05 15:57:01;;;;;;;;;;;;;;;;;;5000471;28;19972;-72
2021/04/05 15:59:27;;;;;;;;;;;;;;;;;;5002905;28;20006;-73
2021/04/05 16:01:57;;;;;;;;;;;;;;;;;;4999871;28;20377;-73
2021/04/05 16:04:27;;;;;;;;;;;;;;;;;;5003517;28;20384;-75
2021/04/05 16:06:58;;;;;;;;;;;;;;;;;;5002405;28;19933;-72
2021/04/05 16:09:26;;;;;;;;;;;;;;;;;;4997378;28;20375;-72
2021/04/05 16:12:01;;;;;;;;;;;;;;;;;;5002369;28;20297;-72
2021/04/05 16:14:29;;;;;;;;;;;;;;;;;;5002430;28;19929;-72
2021/04/05 16:16:58;;;;;;;;;;;;;;;;;;5002732;28;19925;-72
2021/04/05 16:19:25;;;;;;;;;;;;;;;;;;5001470;28;20016;-72
2021/04/05 16:21:55;;;;;;;;;;;;;;;;;;5000743;28;19933;-73
2021/04/05 16:24:23;;;;;;;;;;;;;;;;;;4992114;28;19925;-69
2021/04/05 16:26:50;;;;;;;;;;;;;;;;;;4997767;28;19969;-69
2021/04/05 16:29:17;;;;;;;;;;;;;;;;;;4999415;28;19973;-70
2021/04/05 16:31:43;;;;;;;;;;;;;;;;;;5002081;28;19980;-70
2021/04/05 16:34:16;;;;;;;;;;;;;;;;;;5003209;28;20386;-69
2021/04/05 16:36:46;;;;;;;;;;;;;;;;;;5001341;28;19976;-74
2021/04/05 16:39:16;;;;;;;;;;;;;;;;;;5002676;28;19980;-72
2021/04/05 16:41:43;;;;;;;;;;;;;;;;;;5003567;28;20028;-74
2021/04/05 16:44:15;;;;;;;;;;;;;;;;;;4999945;28;19925;-75
2021/04/05 16:46:47;;;;;;;;;;;;;;;;;;4999921;28;19929;-74
2021/04/05 16:49:14;;;;;;;;;;;;;;;;;;4999694;28;19926;-75
2021/04/05 16:52:06;;;;;;;;;;;;;;;;;;4999693;28;19930;-76
2021/04/05 16:54:34;;;;;;;;;;;;;;;;;;4994880;28;19926;-72
2021/04/05 16:57:00;;;;;;;;;;;;;;;;;;5001605;28;19929;-72
2021/04/05 16:59:50;;;;;;;;;;;;;;;;;;4992994;28;20031;-71
2021/04/05 17:02:20;;;;;;;;;;;;;;;;;;4989124;28;19925;-72
2021/04/05 17:04:46;;;;;;;;;;;;;;;;;;4999593;28;19933;-72
2021/04/05 17:07:12;;;;;;;;;;;;;;;;;;4995391;28;19987;-72
2021/04/05 17:09:59;;;;;;;;;;;;;;;;;;4999608;28;19930;-73
2021/04/05 17:12:30;;;;;;;;;;;;;;;;;;4998609;28;19929;-72
2021/04/05 17:15:05;;;;;;;;;;;;;;;;;;4998923;28;19929;-72